createdAt,value
2023-05-04T00:00:34.274Z,2.63
2023-05-04T00:03:02.004Z,2.70
2023-05-04T00:05:29.182Z,2.35
2023-05-04T00:07:56.481Z,2.00
2023-05-04T00:10:23.647Z,2.80
2023-05-04T00:12:50.858Z,2.28
2023-05-04T00:15:18.788Z,2.75
2023-05-04T00:17:46.014Z,2.53
2023-05-04T00:20:13.375Z,2.55
2023-05-04T00:22:41.097Z,2.60
2023-05-04T00:25:08.740Z,2.90
2023-05-04T00:27:35.854Z,3.85
2023-05-04T00:30:03.510Z,2.13
2023-05-04T00:32:32.243Z,2.03
2023-05-04T00:34:59.720Z,2.00
2023-05-04T00:37:27.234Z,1.77
2023-05-04T00:39:54.608Z,2.38
2023-05-04T00:42:22.126Z,2.55
2023-05-04T00:44:49.735Z,2.90
2023-05-04T00:47:19.790Z,2.38
2023-05-04T00:49:47.307Z,2.83
2023-05-04T00:52:14.635Z,1.83
2023-05-04T00:54:43.623Z,1.80
2023-05-04T00:57:11.013Z,1.70
2023-05-04T00:59:39.081Z,1.50
2023-05-04T01:02:06.376Z,1.30
2023-05-04T01:04:33.723Z,1.70
2023-05-04T01:07:08.481Z,1.40
2023-05-04T01:09:51.773Z,1.65
2023-05-04T01:12:25.580Z,1.40
2023-05-04T01:14:53.699Z,1.42
2023-05-04T01:17:22.628Z,1.50
2023-05-04T01:19:50.909Z,1.58
2023-05-04T01:22:18.399Z,1.48
2023-05-04T01:24:45.503Z,1.95
2023-05-04T01:27:44.944Z,2.03
2023-05-04T01:30:17.268Z,2.55
2023-05-04T01:32:45.036Z,1.90
2023-05-04T01:35:13.625Z,1.85
2023-05-04T01:37:40.984Z,1.50
2023-05-04T01:40:09.144Z,1.13
2023-05-04T01:42:36.247Z,1.30
2023-05-04T01:45:05.329Z,1.40
2023-05-04T01:47:32.449Z,1.40
2023-05-04T01:49:59.824Z,1.20
2023-05-04T01:52:26.979Z,1.23
2023-05-04T01:54:54.297Z,1.23
2023-05-04T01:57:21.966Z,1.30
2023-05-04T01:59:48.994Z,1.45
2023-05-04T02:02:16.613Z,1.20
2023-05-04T02:04:43.665Z,1.60
2023-05-04T02:07:10.860Z,1.30
2023-05-04T02:09:38.378Z,1.40
2023-05-04T02:12:05.519Z,1.38
2023-05-04T02:14:33.036Z,1.30
2023-05-04T02:17:00.060Z,1.52
2023-05-04T02:19:27.642Z,1.42
2023-05-04T02:21:55.388Z,1.20
2023-05-04T02:24:22.671Z,1.60
2023-05-04T02:26:50.046Z,1.60
2023-05-04T02:29:17.433Z,0.90
2023-05-04T02:31:45.235Z,1.40
2023-05-04T02:34:14.130Z,1.77
2023-05-04T02:36:47.145Z,1.00
2023-05-04T02:39:14.451Z,1.10
2023-05-04T02:41:42.083Z,0.93
2023-05-04T02:44:09.376Z,1.40
2023-05-04T02:46:36.750Z,1.23
2023-05-04T02:49:04.029Z,1.30
2023-05-04T02:51:31.461Z,1.60
2023-05-04T02:53:58.887Z,1.20
2023-05-04T02:56:26.563Z,0.90
2023-05-04T02:58:54.102Z,1.00
2023-05-04T03:01:21.592Z,0.80
2023-05-04T03:03:49.396Z,1.10
2023-05-04T03:06:16.526Z,0.88
2023-05-04T03:08:43.569Z,0.70
2023-05-04T03:11:11.038Z,0.70
2023-05-04T03:13:38.407Z,0.68
2023-05-04T03:16:05.758Z,0.90
2023-05-04T03:21:18.257Z,1.00
2023-05-04T03:23:45.851Z,0.80
2023-05-04T03:26:13.472Z,0.85
2023-05-04T03:28:40.683Z,1.30
2023-05-04T03:31:08.478Z,1.20
2023-05-04T03:33:36.143Z,1.10
2023-05-04T03:36:03.522Z,0.90
2023-05-04T03:38:31.564Z,1.80
2023-05-04T03:40:59.851Z,1.10
2023-05-04T03:43:27.009Z,1.20
2023-05-04T03:45:57.106Z,1.27
2023-05-04T03:48:24.514Z,1.67
2023-05-04T03:50:51.721Z,0.88
2023-05-04T03:53:19.810Z,0.80
2023-05-04T03:55:47.057Z,1.15
2023-05-04T03:58:14.782Z,1.10
2023-05-04T04:00:42.456Z,1.27
2023-05-04T04:03:14.864Z,2.03
2023-05-04T04:05:42.666Z,1.10
2023-05-04T04:08:10.571Z,1.30
2023-05-04T04:10:37.546Z,1.00
2023-05-04T04:13:04.927Z,1.00
2023-05-04T04:15:32.301Z,1.05
2023-05-04T04:18:00.049Z,0.90
2023-05-04T04:20:27.360Z,1.00
2023-05-04T04:22:54.665Z,0.75
2023-05-04T04:25:22.291Z,0.90
2023-05-04T04:27:49.694Z,0.98
2023-05-04T04:30:17.106Z,1.00
2023-05-04T04:32:45.842Z,1.02
2023-05-04T04:35:14.029Z,0.90
2023-05-04T04:37:41.412Z,0.80
2023-05-04T04:40:10.249Z,0.82
2023-05-04T04:42:37.325Z,0.80
2023-05-04T04:45:05.619Z,0.80
2023-05-04T04:47:33.108Z,1.05
2023-05-04T04:50:00.774Z,0.90
2023-05-04T04:52:28.190Z,0.90
2023-05-04T04:54:56.547Z,1.00
2023-05-04T04:57:23.879Z,1.10
2023-05-04T04:59:51.204Z,1.10
2023-05-04T05:02:18.492Z,1.10
2023-05-04T05:04:46.244Z,0.90
2023-05-04T05:07:13.403Z,0.82
2023-05-04T05:09:40.713Z,0.77
2023-05-04T05:12:07.938Z,0.85
2023-05-04T05:14:35.058Z,0.80
2023-05-04T05:17:04.955Z,1.10
2023-05-04T05:19:36.831Z,1.35
2023-05-04T05:22:04.668Z,1.40
2023-05-04T05:24:32.262Z,1.80
2023-05-04T05:27:00.020Z,1.10
2023-05-04T05:29:27.340Z,0.80
2023-05-04T05:31:54.632Z,0.70
2023-05-04T05:34:21.663Z,0.80
2023-05-04T05:36:49.227Z,1.00
2023-05-04T05:39:16.421Z,0.90
2023-05-04T05:41:43.402Z,1.00
2023-05-04T05:44:12.924Z,0.90
2023-05-04T05:46:40.695Z,3.92
2023-05-04T05:49:07.922Z,1.08
2023-05-04T05:51:35.597Z,1.05
2023-05-04T05:54:03.054Z,1.40
2023-05-04T05:56:30.122Z,1.35
2023-05-04T05:58:57.534Z,1.05
2023-05-04T06:01:26.310Z,0.80
2023-05-04T06:03:53.576Z,3.78
2023-05-04T06:06:21.154Z,0.80
2023-05-04T06:08:48.648Z,1.00
2023-05-04T06:11:16.342Z,0.88
2023-05-04T06:13:43.307Z,0.80
2023-05-04T06:16:10.898Z,0.80
2023-05-04T06:18:37.904Z,0.77
2023-05-04T06:21:05.185Z,4.43
2023-05-04T06:23:32.224Z,0.88
2023-05-04T06:25:59.657Z,0.85
2023-05-04T06:28:27.318Z,0.80
2023-05-04T06:30:54.428Z,0.60
2023-05-04T06:33:21.776Z,1.05
2023-05-04T06:35:49.166Z,0.70
2023-05-04T06:38:16.804Z,1.13
2023-05-04T06:40:43.966Z,0.70
2023-05-04T06:43:11.303Z,0.98
2023-05-04T06:45:39.106Z,0.77
2023-05-04T06:48:07.508Z,0.90
2023-05-04T06:50:35.906Z,1.20
2023-05-04T06:53:04.272Z,0.70
2023-05-04T06:55:31.884Z,0.63
2023-05-04T06:57:58.916Z,0.82
2023-05-04T07:00:26.794Z,1.00
2023-05-04T07:02:54.169Z,0.63
2023-05-04T07:05:22.019Z,0.93
2023-05-04T07:07:51.264Z,0.70
2023-05-04T07:10:19.229Z,1.75
2023-05-04T07:12:46.653Z,1.10
2023-05-04T07:15:14.300Z,0.93
2023-05-04T07:17:41.579Z,0.70
2023-05-04T07:20:09.013Z,0.88
2023-05-04T07:22:36.272Z,1.00
2023-05-04T07:25:04.165Z,1.00
2023-05-04T07:27:31.310Z,0.73
2023-05-04T07:29:58.782Z,4.50
2023-05-04T07:32:26.176Z,0.70
2023-05-04T07:34:53.814Z,0.70
2023-05-04T07:37:21.132Z,0.63
2023-05-04T07:39:48.182Z,0.60
2023-05-04T07:42:15.656Z,1.13
2023-05-04T07:44:43.646Z,1.70
2023-05-04T07:47:10.701Z,1.38
2023-05-04T07:49:38.024Z,0.90
2023-05-04T07:52:05.783Z,1.00
2023-05-04T07:54:32.891Z,1.30
2023-05-04T07:57:05.035Z,1.90
2023-05-04T07:59:32.456Z,1.10
2023-05-04T08:01:59.908Z,0.80
2023-05-04T08:04:27.394Z,0.52
2023-05-04T08:06:54.473Z,0.75
2023-05-04T08:09:21.599Z,0.70
2023-05-04T08:11:49.192Z,0.70
2023-05-04T08:14:16.506Z,0.82
2023-05-04T08:16:43.658Z,1.00
2023-05-04T08:19:12.111Z,1.15
2023-05-04T08:21:40.392Z,1.00
2023-05-04T08:24:07.723Z,0.90
2023-05-04T08:26:37.293Z,1.13
2023-05-04T08:29:07.992Z,0.70
2023-05-04T08:31:36.021Z,0.82
2023-05-04T08:34:03.988Z,0.98
2023-05-04T08:36:31.761Z,0.80
2023-05-04T08:38:58.869Z,0.60
2023-05-04T08:41:26.343Z,0.95
2023-05-04T08:43:53.776Z,1.00
2023-05-04T08:46:21.339Z,0.70
2023-05-04T08:48:48.715Z,0.73
2023-05-04T08:51:16.382Z,1.00
2023-05-04T08:53:45.715Z,0.93
2023-05-04T08:56:13.810Z,1.00
2023-05-04T08:58:52.979Z,0.90
2023-05-04T09:01:20.501Z,1.00
2023-05-04T09:03:47.752Z,2.92
2023-05-04T09:06:15.223Z,1.05
2023-05-04T09:08:42.970Z,1.48
2023-05-04T09:11:10.471Z,1.15
2023-05-04T09:13:38.314Z,1.23
2023-05-04T09:16:06.105Z,1.80
2023-05-04T09:18:40.128Z,1.15
2023-05-04T09:21:07.996Z,2.13
2023-05-04T09:23:48.715Z,1.40
2023-05-04T09:26:26.784Z,0.70
2023-05-04T09:28:55.085Z,1.48
2023-05-04T09:31:23.133Z,1.20
2023-05-04T09:33:53.290Z,0.80
2023-05-04T09:36:21.574Z,0.75
2023-05-04T09:38:49.353Z,0.77
2023-05-04T09:41:16.784Z,1.15
2023-05-04T09:43:44.490Z,1.23
2023-05-04T09:46:18.570Z,1.17
2023-05-04T09:48:53.417Z,1.20
2023-05-04T09:51:22.530Z,1.20
2023-05-04T09:53:50.514Z,1.27
2023-05-04T09:56:20.372Z,1.48
2023-05-04T09:58:47.690Z,4.38
2023-05-04T10:01:14.786Z,1.50
2023-05-04T10:03:42.855Z,1.13
2023-05-04T10:06:10.641Z,1.52
2023-05-04T10:08:38.523Z,1.70
2023-05-04T10:11:06.065Z,1.17
2023-05-04T10:13:33.433Z,1.20
2023-05-04T10:16:38.293Z,1.08
2023-05-04T10:19:23.171Z,0.85
2023-05-04T10:21:55.608Z,1.20
2023-05-04T10:24:26.728Z,1.33
2023-05-04T10:27:09.733Z,3.13
2023-05-04T10:29:37.191Z,2.70
2023-05-04T10:32:05.003Z,2.47
2023-05-04T10:34:32.993Z,1.95
2023-05-04T10:37:00.940Z,2.20
2023-05-04T10:39:30.567Z,3.00
2023-05-04T10:42:03.346Z,1.75
2023-05-04T10:44:32.693Z,2.13
2023-05-04T10:47:01.653Z,2.25
2023-05-04T10:49:29.161Z,1.75
2023-05-04T10:52:06.359Z,1.83
2023-05-04T10:54:34.513Z,2.05
2023-05-04T10:57:12.276Z,2.10
2023-05-04T10:59:40.828Z,2.97
2023-05-04T11:02:08.784Z,2.58
2023-05-04T11:04:36.162Z,2.08
2023-05-04T11:07:08.370Z,1.70
2023-05-04T11:09:37.420Z,2.55
2023-05-04T11:12:05.750Z,2.17
2023-05-04T11:14:37.327Z,2.75
2023-05-04T11:19:50.674Z,2.67
2023-05-04T11:22:18.492Z,2.38
2023-05-04T11:24:46.556Z,1.90
2023-05-04T11:27:29.590Z,2.08
2023-05-04T11:30:01.163Z,2.65
2023-05-04T11:32:38.951Z,3.30
2023-05-04T11:35:18.756Z,3.22
2023-05-04T11:37:46.792Z,5.18
2023-05-04T11:40:16.424Z,3.17
2023-05-04T11:42:43.830Z,3.08
2023-05-04T11:45:14.178Z,4.45
2023-05-04T11:47:41.350Z,5.70
2023-05-04T11:50:10.760Z,4.10
2023-05-04T11:52:40.471Z,5.40
2023-05-04T11:55:12.124Z,4.00
2023-05-04T11:57:39.488Z,5.03
2023-05-04T12:00:07.994Z,9.95
2023-05-04T12:02:35.653Z,6.70
2023-05-04T12:05:03.275Z,7.50
2023-05-04T12:07:35.342Z,7.05
2023-05-04T12:10:02.848Z,5.40
2023-05-04T12:12:35.444Z,5.13
2023-05-04T12:15:03.132Z,5.05
2023-05-04T12:17:41.105Z,4.75
2023-05-04T12:20:08.671Z,3.78
2023-05-04T12:22:36.000Z,4.18
2023-05-04T12:25:03.651Z,4.70
2023-05-04T12:27:31.428Z,6.55
2023-05-04T12:29:58.532Z,9.27
2023-05-04T12:32:26.062Z,5.75
2023-05-04T12:34:53.042Z,7.57
2023-05-04T12:37:20.139Z,7.95
2023-05-04T12:39:47.249Z,10.27
2023-05-04T12:42:14.847Z,13.93
2023-05-04T12:44:42.043Z,9.98
2023-05-04T12:47:09.664Z,7.72
2023-05-04T12:49:36.824Z,8.40
2023-05-04T12:52:04.075Z,6.45
2023-05-04T12:54:31.089Z,13.30
2023-05-04T12:56:58.464Z,9.10
2023-05-04T12:59:26.211Z,8.30
2023-05-04T13:01:53.766Z,32.03
2023-05-04T13:04:21.274Z,13.57
2023-05-04T13:06:48.707Z,18.88
2023-05-04T13:09:16.256Z,10.60
2023-05-04T13:11:43.431Z,18.45
2023-05-04T13:14:11.379Z,22.38
2023-05-04T13:16:38.573Z,15.18
2023-05-04T13:19:06.185Z,28.25
2023-05-04T13:21:33.298Z,19.98
2023-05-04T13:24:01.777Z,9.43
2023-05-04T13:26:28.840Z,13.27
2023-05-04T13:28:55.887Z,13.68
2023-05-04T13:31:23.308Z,11.00
2023-05-04T13:33:50.723Z,10.30
2023-05-04T13:36:18.476Z,13.80
2023-05-04T13:38:45.877Z,12.23
2023-05-04T13:41:13.358Z,15.25
2023-05-04T13:43:40.488Z,13.30
2023-05-04T13:46:07.791Z,16.02
2023-05-04T13:48:35.448Z,23.30
2023-05-04T13:51:03.750Z,14.77
2023-05-04T13:53:31.667Z,16.02
2023-05-04T13:55:59.147Z,17.27
2023-05-04T13:58:26.461Z,18.90
2023-05-04T14:00:55.895Z,29.83
2023-05-04T14:03:23.172Z,22.60
2023-05-04T14:05:51.429Z,17.95
2023-05-04T14:08:18.761Z,23.38
2023-05-04T14:10:46.452Z,23.92
2023-05-04T14:13:15.121Z,19.98
2023-05-04T14:15:42.275Z,25.40
2023-05-04T14:18:09.891Z,32.78
2023-05-04T14:20:37.274Z,30.38
2023-05-04T14:23:04.913Z,30.25
2023-05-04T14:25:31.965Z,35.40
2023-05-04T14:27:59.086Z,34.20
2023-05-04T14:30:27.604Z,50.00
2023-05-04T14:32:55.790Z,66.25
2023-05-04T14:35:23.116Z,74.82
2023-05-04T14:37:50.508Z,76.18
2023-05-04T14:40:17.573Z,71.20
2023-05-04T14:42:44.943Z,65.10
2023-05-04T14:45:12.409Z,71.00
2023-05-04T14:47:39.553Z,56.58
2023-05-04T14:50:07.990Z,55.15
2023-05-04T14:52:35.231Z,56.42
2023-05-04T14:55:04.118Z,53.08
2023-05-04T14:57:31.281Z,49.20
2023-05-04T14:59:58.983Z,51.78
2023-05-04T15:02:26.622Z,44.95
2023-05-04T15:04:54.080Z,48.38
2023-05-04T15:07:21.801Z,47.20
2023-05-04T15:09:49.140Z,43.80
2023-05-04T15:12:17.489Z,39.13
2023-05-04T15:14:46.126Z,36.97
2023-05-04T15:17:13.447Z,43.90
2023-05-04T15:19:40.839Z,46.60
2023-05-04T15:22:08.286Z,72.43
2023-05-04T15:24:35.530Z,83.70
2023-05-04T15:27:03.744Z,82.90
2023-05-04T15:29:31.153Z,67.32
2023-05-04T15:31:58.323Z,70.70
2023-05-04T15:34:25.422Z,58.95
2023-05-04T15:36:52.882Z,54.85
2023-05-04T15:39:19.955Z,33.58
2023-05-04T15:41:47.242Z,36.38
2023-05-04T15:44:15.026Z,49.70
2023-05-04T15:46:42.223Z,38.53
2023-05-04T15:49:10.084Z,36.25
2023-05-04T15:51:37.343Z,47.60
2023-05-04T15:54:04.549Z,31.77
2023-05-04T15:56:31.844Z,40.85
2023-05-04T15:58:59.027Z,44.65
2023-05-04T16:01:26.446Z,48.50
2023-05-04T16:03:55.073Z,46.33
2023-05-04T16:06:23.631Z,35.83
2023-05-04T16:08:51.418Z,42.80
2023-05-04T16:11:18.741Z,36.90
2023-05-04T16:13:46.435Z,42.00
2023-05-04T16:16:13.493Z,43.47
2023-05-04T16:18:40.903Z,47.70
2023-05-04T16:21:08.655Z,48.22
2023-05-04T16:23:36.143Z,60.45
2023-05-04T16:26:03.295Z,55.17
2023-05-04T16:28:30.273Z,60.05
2023-05-04T16:30:57.763Z,48.80
2023-05-04T16:33:26.275Z,52.35
2023-05-04T16:35:53.601Z,50.70
2023-05-04T16:38:21.127Z,52.63
2023-05-04T16:40:48.758Z,54.88
2023-05-04T16:43:16.202Z,50.90
2023-05-04T16:45:43.857Z,50.30
2023-05-04T16:48:10.911Z,49.90
2023-05-04T16:50:38.363Z,54.38
2023-05-04T16:53:05.732Z,57.20
2023-05-04T16:55:32.688Z,63.28
2023-05-04T16:58:00.375Z,63.00
2023-05-04T17:00:28.023Z,68.50
2023-05-04T17:02:55.616Z,61.00
2023-05-04T17:05:22.807Z,61.35
2023-05-04T17:07:50.706Z,50.58
2023-05-04T17:10:18.508Z,49.17
2023-05-04T17:12:46.129Z,39.22
2023-05-04T17:15:13.288Z,45.75
2023-05-04T17:17:41.258Z,38.95
2023-05-04T17:20:14.050Z,31.50
2023-05-04T17:25:12.205Z,26.67
2023-05-04T17:27:40.204Z,24.13
2023-05-04T17:30:08.009Z,20.00
2023-05-04T17:32:37.264Z,19.70
2023-05-04T17:35:15.965Z,21.70
2023-05-04T17:37:51.325Z,20.42
2023-05-04T17:40:18.488Z,25.90
2023-05-04T17:42:47.331Z,27.40
2023-05-04T17:45:14.890Z,33.63
2023-05-04T17:47:43.619Z,36.83
2023-05-04T17:50:11.306Z,32.70
2023-05-04T17:52:38.363Z,32.20
2023-05-04T17:55:06.261Z,30.85
2023-05-04T17:57:33.971Z,31.80
2023-05-04T18:00:00.971Z,31.20
2023-05-04T18:02:30.702Z,25.48
2023-05-04T18:04:58.015Z,24.63
2023-05-04T18:07:25.872Z,24.90
2023-05-04T18:09:53.302Z,23.63
2023-05-04T18:12:20.340Z,24.02
2023-05-04T18:14:47.714Z,21.98
2023-05-04T18:17:14.926Z,22.90
2023-05-04T18:19:41.941Z,22.83
2023-05-04T18:22:09.247Z,21.27
2023-05-04T18:24:36.782Z,21.13
2023-05-04T18:27:04.447Z,19.70
2023-05-04T18:29:31.822Z,16.55
2023-05-04T18:32:00.983Z,20.75
2023-05-04T18:34:27.987Z,17.10
2023-05-04T18:36:55.207Z,30.48
2023-05-04T18:39:22.789Z,28.05
2023-05-04T18:41:50.093Z,31.80
2023-05-04T18:44:17.175Z,34.45
2023-05-04T18:46:44.718Z,41.55
2023-05-04T18:49:12.012Z,20.20
2023-05-04T18:51:41.325Z,15.52
2023-05-04T18:54:08.780Z,15.45
2023-05-04T18:56:36.290Z,17.92
2023-05-04T18:59:05.704Z,16.48
2023-05-04T19:01:33.207Z,13.20
2023-05-04T19:04:00.317Z,15.02
2023-05-04T19:06:27.529Z,13.98
2023-05-04T19:08:54.593Z,13.70
2023-05-04T19:11:21.653Z,13.30
2023-05-04T19:13:49.922Z,14.13
2023-05-04T19:16:17.830Z,11.15
2023-05-04T19:18:45.797Z,12.95
2023-05-04T19:21:12.937Z,11.82
2023-05-04T19:23:40.287Z,12.00
2023-05-04T19:26:07.561Z,14.55
2023-05-04T19:28:35.233Z,15.43
2023-05-04T19:31:02.553Z,16.00
2023-05-04T19:33:40.418Z,19.58
2023-05-04T19:36:15.725Z,26.67
2023-05-04T19:38:43.013Z,27.65
2023-05-04T19:41:10.050Z,28.48
2023-05-04T19:43:38.522Z,27.38
2023-05-04T19:46:05.879Z,22.60
2023-05-04T19:48:33.285Z,22.33
2023-05-04T19:51:00.336Z,17.33
2023-05-04T19:53:27.610Z,19.42
2023-05-04T19:55:55.318Z,14.93
2023-05-04T19:58:25.621Z,12.77
2023-05-04T20:00:53.532Z,10.13
2023-05-04T20:03:20.898Z,11.55
2023-05-04T20:05:48.768Z,11.13
2023-05-04T20:08:16.227Z,11.43
2023-05-04T20:10:43.537Z,10.98
2023-05-04T20:13:10.672Z,10.85
2023-05-04T20:15:37.868Z,10.80
2023-05-04T20:18:06.094Z,9.52
2023-05-04T20:20:33.613Z,8.48
2023-05-04T20:23:00.756Z,9.35
2023-05-04T20:25:28.530Z,7.50
2023-05-04T20:27:55.835Z,8.35
2023-05-04T20:30:23.400Z,8.25
2023-05-04T20:32:50.783Z,7.75
2023-05-04T20:35:18.610Z,8.95
2023-05-04T20:37:46.286Z,9.02
2023-05-04T20:40:16.630Z,10.85
2023-05-04T20:42:43.810Z,11.15
2023-05-04T20:45:11.056Z,12.02
2023-05-04T20:47:38.806Z,10.18
2023-05-04T20:50:07.720Z,10.50
2023-05-04T20:52:38.071Z,9.80
2023-05-04T20:55:07.151Z,9.30
2023-05-04T20:57:34.178Z,11.95
2023-05-04T21:00:01.608Z,11.65
2023-05-04T21:02:28.805Z,13.40
2023-05-04T21:04:56.482Z,17.48
2023-05-04T21:07:23.534Z,16.85
2023-05-04T21:09:56.182Z,15.60
2023-05-04T21:12:23.551Z,17.10
2023-05-04T21:14:50.685Z,18.65
2023-05-04T21:17:18.442Z,17.88
2023-05-04T21:19:45.771Z,14.75
2023-05-04T21:22:17.018Z,15.73
2023-05-04T21:24:46.282Z,15.07
2023-05-04T21:27:13.754Z,16.63
2023-05-04T21:29:40.920Z,17.15
2023-05-04T21:32:08.635Z,15.48
2023-05-04T21:34:36.013Z,19.42
2023-05-04T21:37:03.411Z,17.08
2023-05-04T21:39:31.593Z,16.98
2023-05-04T21:41:58.924Z,18.40
2023-05-04T21:44:25.975Z,18.20
2023-05-04T21:46:53.172Z,18.88
2023-05-04T21:49:20.682Z,20.40
2023-05-04T21:51:47.972Z,20.83
2023-05-04T21:54:15.624Z,21.00
2023-05-04T21:56:42.732Z,23.63
2023-05-04T21:59:10.105Z,22.80
2023-05-04T22:01:37.576Z,22.38
2023-05-04T22:04:07.597Z,21.40
2023-05-04T22:06:35.948Z,18.42
2023-05-04T22:09:03.865Z,18.60
2023-05-04T22:11:31.066Z,14.18
2023-05-04T22:13:58.978Z,12.88
2023-05-04T22:16:26.393Z,12.65
2023-05-04T22:18:53.736Z,11.38
2023-05-04T22:21:21.030Z,10.73
2023-05-04T22:23:48.689Z,11.40
2023-05-04T22:26:16.177Z,11.88
2023-05-04T22:28:43.157Z,9.45
2023-05-04T22:31:10.355Z,8.80
2023-05-04T22:33:37.386Z,9.00
2023-05-04T22:36:04.980Z,9.88
2023-05-04T22:38:32.086Z,9.75
2023-05-04T22:40:59.204Z,9.75
2023-05-04T22:43:26.216Z,10.90
2023-05-04T22:45:53.910Z,10.23
2023-05-04T22:48:21.398Z,11.13
2023-05-04T22:50:48.607Z,12.27
2023-05-04T22:53:16.054Z,12.10
2023-05-04T22:55:43.118Z,11.52
2023-05-04T22:58:11.012Z,11.55
2023-05-04T23:00:38.355Z,12.30
2023-05-04T23:03:06.127Z,11.52
2023-05-04T23:05:33.293Z,11.85
2023-05-04T23:08:00.776Z,10.07
2023-05-04T23:10:27.933Z,10.07
2023-05-04T23:12:55.872Z,10.20
2023-05-04T23:15:24.656Z,10.75
2023-05-04T23:17:51.824Z,10.50
2023-05-04T23:20:19.570Z,10.38
2023-05-04T23:22:46.659Z,10.65
2023-05-04T23:25:13.872Z,10.73
2023-05-04T23:27:41.074Z,9.70
2023-05-04T23:30:09.613Z,9.68
2023-05-04T23:32:36.863Z,10.55
2023-05-04T23:35:04.214Z,8.82
2023-05-04T23:37:32.019Z,9.15
2023-05-04T23:39:59.923Z,9.98
2023-05-04T23:42:27.135Z,9.38
2023-05-04T23:44:55.348Z,9.45
2023-05-04T23:47:22.982Z,9.63
2023-05-04T23:49:50.457Z,9.75
2023-05-04T23:52:17.759Z,9.90
2023-05-04T23:54:45.075Z,11.00
2023-05-04T23:57:12.331Z,11.18
2023-05-04T23:59:40.452Z,12.35
